createdAt,value
2022-11-08T00:01:55.451Z,100629.95
2022-11-08T00:04:31.214Z,100627.09
2022-11-08T00:07:20.879Z,100625.52
2022-11-08T00:10:11.126Z,100629.75
2022-11-08T00:13:01.410Z,100626.36
2022-11-08T00:15:38.392Z,100632.11
2022-11-08T00:18:11.348Z,100632.98
2022-11-08T00:20:43.670Z,100633.48
2022-11-08T00:23:16.048Z,100611.86
2022-11-08T00:25:54.557Z,100631.30
2022-11-08T00:28:27.665Z,100628.20
2022-11-08T00:30:59.993Z,100627.13
2022-11-08T00:33:33.611Z,100629.11
2022-11-08T00:36:07.121Z,100631.85
2022-11-08T00:38:44.394Z,100605.29
2022-11-08T00:41:17.547Z,100630.42
2022-11-08T00:43:49.893Z,100629.42
2022-11-08T00:46:24.235Z,100631.85
2022-11-08T00:48:56.724Z,100632.71
2022-11-08T00:51:30.094Z,100634.12
2022-11-08T00:54:02.475Z,100635.08
2022-11-08T00:56:35.208Z,100636.48
2022-11-08T00:59:09.039Z,100630.61
2022-11-08T01:01:42.291Z,100630.77
2022-11-08T01:04:20.916Z,100628.88
2022-11-08T01:06:53.418Z,100623.14
2022-11-08T01:09:26.408Z,100624.64
2022-11-08T01:11:58.801Z,100620.48
2022-11-08T01:14:31.107Z,100605.56
2022-11-08T01:17:03.694Z,100619.88
2022-11-08T01:19:36.343Z,100623.53
2022-11-08T01:22:08.377Z,100602.34
2022-11-08T01:24:42.501Z,100626.23
2022-11-08T01:27:14.973Z,100624.20
2022-11-08T01:29:47.466Z,100622.61
2022-11-08T01:32:19.800Z,100605.60
2022-11-08T01:34:54.852Z,100622.27
2022-11-08T01:37:27.211Z,100623.09
2022-11-08T01:40:00.109Z,100621.43
2022-11-08T01:42:34.482Z,100621.93
2022-11-08T01:45:12.901Z,100621.59
2022-11-08T01:47:45.322Z,100620.10
2022-11-08T01:50:21.546Z,100601.52
2022-11-08T01:52:57.079Z,100620.36
2022-11-08T01:55:35.928Z,100617.12
2022-11-08T01:58:15.840Z,100616.41
2022-11-08T02:00:48.949Z,100613.61
2022-11-08T02:03:22.789Z,100612.45
2022-11-08T02:05:56.341Z,100612.95
2022-11-08T02:08:34.552Z,100611.75
2022-11-08T02:11:14.955Z,100615.70
2022-11-08T02:13:49.154Z,100616.46
2022-11-08T02:16:22.202Z,100623.08
2022-11-08T02:18:55.141Z,100605.80
2022-11-08T02:21:35.929Z,100621.35
2022-11-08T02:24:12.000Z,100620.83
2022-11-08T02:26:46.484Z,100617.93
2022-11-08T02:29:33.811Z,100615.77
2022-11-08T02:32:10.601Z,100612.23
2022-11-08T02:34:51.449Z,100608.89
2022-11-08T02:37:25.245Z,100605.20
2022-11-08T02:39:57.934Z,100607.19
2022-11-08T02:42:30.680Z,100611.41
2022-11-08T02:45:05.263Z,100610.29
2022-11-08T02:47:35.876Z,100612.01
2022-11-08T02:50:12.956Z,100600.55
2022-11-08T02:52:46.239Z,100616.39
2022-11-08T02:55:18.786Z,100619.64
2022-11-08T02:57:51.786Z,100620.41
2022-11-08T03:00:24.546Z,100625.25
2022-11-08T03:02:59.701Z,100631.31
2022-11-08T03:05:39.203Z,100629.48
2022-11-08T03:08:14.567Z,100625.16
2022-11-08T03:10:47.425Z,100623.28
2022-11-08T03:13:21.432Z,100621.78
2022-11-08T03:15:53.722Z,100621.92
2022-11-08T03:18:25.798Z,100600.66
2022-11-08T03:21:00.222Z,100614.70
2022-11-08T03:23:34.303Z,100616.16
2022-11-08T03:26:11.126Z,100616.88
2022-11-08T03:28:43.515Z,100616.05
2022-11-08T03:31:16.081Z,100616.45
2022-11-08T03:33:48.646Z,100616.83
2022-11-08T03:36:21.013Z,100609.41
2022-11-08T03:38:53.503Z,100618.94
2022-11-08T03:41:26.194Z,100603.48
2022-11-08T03:43:58.810Z,100620.21
2022-11-08T03:46:31.160Z,100620.08
2022-11-08T03:49:03.350Z,100620.73
2022-11-08T03:51:35.589Z,100617.10
2022-11-08T03:54:07.811Z,100618.83
2022-11-08T03:56:39.889Z,100616.17
2022-11-08T03:59:16.448Z,100622.70
2022-11-08T04:01:48.622Z,100622.09
2022-11-08T04:04:22.189Z,100617.73
2022-11-08T04:06:54.627Z,100616.72
2022-11-08T04:09:27.213Z,100617.06
2022-11-08T04:12:16.968Z,100620.03
2022-11-08T04:15:08.341Z,100619.98
2022-11-08T04:17:58.386Z,100618.02
2022-11-08T04:20:49.594Z,100617.55
2022-11-08T04:23:22.877Z,100616.88
2022-11-08T04:25:59.362Z,100614.20
2022-11-08T04:28:35.390Z,100614.15
2022-11-08T04:31:10.937Z,100615.37
2022-11-08T04:33:43.552Z,100614.67
2022-11-08T04:36:17.594Z,100613.32
2022-11-08T04:38:52.807Z,100615.64
2022-11-08T04:41:26.849Z,100612.63
2022-11-08T04:43:59.505Z,100610.30
2022-11-08T04:46:33.351Z,100604.20
2022-11-08T04:49:06.633Z,100567.27
2022-11-08T04:51:39.737Z,100608.96
2022-11-08T04:54:15.403Z,100612.38
2022-11-08T04:56:47.446Z,100614.31
2022-11-08T04:59:19.622Z,100613.88
2022-11-08T05:01:53.367Z,100616.88
2022-11-08T05:04:26.624Z,100615.19
2022-11-08T05:06:58.712Z,100619.17
2022-11-08T05:09:31.159Z,100618.02
2022-11-08T05:12:03.421Z,100618.06
2022-11-08T05:14:35.732Z,100614.83
2022-11-08T05:17:08.335Z,100614.06
2022-11-08T05:19:58.943Z,100611.49
2022-11-08T05:22:48.708Z,100614.32
2022-11-08T05:25:20.957Z,100593.02
2022-11-08T05:27:53.582Z,100608.48
2022-11-08T05:30:25.875Z,100611.41
2022-11-08T05:33:01.002Z,100608.30
2022-11-08T05:35:36.096Z,100608.25
2022-11-08T05:38:10.298Z,100607.89
2022-11-08T05:40:44.561Z,100609.34
2022-11-08T05:43:18.738Z,100613.25
2022-11-08T05:45:51.221Z,100610.42
2022-11-08T05:48:23.816Z,100614.33
2022-11-08T05:50:58.535Z,100619.94
2022-11-08T05:53:32.395Z,100619.21
2022-11-08T05:56:12.605Z,100624.36
2022-11-08T05:58:47.160Z,100620.11
2022-11-08T06:01:21.541Z,100620.48
2022-11-08T06:03:53.800Z,100616.10
2022-11-08T06:06:28.526Z,100614.75
2022-11-08T06:09:00.317Z,100615.75
2022-11-08T06:11:32.294Z,100611.34
2022-11-08T06:14:04.510Z,100614.19
2022-11-08T06:16:37.950Z,100623.95
2022-11-08T06:19:12.495Z,100624.46
2022-11-08T06:21:43.582Z,100627.06
2022-11-08T06:24:18.962Z,100626.56
2022-11-08T06:26:51.419Z,100625.45
2022-11-08T06:29:28.622Z,100623.74
2022-11-08T06:32:00.809Z,100621.45
2022-11-08T06:34:33.199Z,100620.90
2022-11-08T06:37:08.322Z,100617.30
2022-11-08T06:39:45.877Z,100618.41
2022-11-08T06:42:17.992Z,100618.27
2022-11-08T06:44:50.846Z,100621.73
2022-11-08T06:47:23.719Z,100621.53
2022-11-08T06:49:56.523Z,100628.93
2022-11-08T06:52:28.834Z,100630.59
2022-11-08T06:55:03.897Z,100630.22
2022-11-08T06:57:35.927Z,100634.84
2022-11-08T07:00:18.327Z,100633.92
2022-11-08T07:02:54.773Z,100637.46
2022-11-08T07:05:27.797Z,100632.13
2022-11-08T07:08:02.172Z,100636.50
2022-11-08T07:10:36.555Z,100634.60
2022-11-08T07:13:12.003Z,100635.16
2022-11-08T07:15:45.408Z,100633.06
2022-11-08T07:18:19.421Z,100620.33
2022-11-08T07:20:52.339Z,100639.86
2022-11-08T07:23:24.475Z,100642.58
2022-11-08T07:25:56.547Z,100643.34
2022-11-08T07:28:28.891Z,100645.25
2022-11-08T07:31:03.868Z,100651.43
2022-11-08T07:33:36.568Z,100654.67
2022-11-08T07:36:09.218Z,100654.90
2022-11-08T07:38:41.519Z,100653.55
2022-11-08T07:41:13.781Z,100653.46
2022-11-08T07:43:46.092Z,100655.98
2022-11-08T07:46:22.075Z,100658.38
2022-11-08T07:48:54.953Z,100659.42
2022-11-08T07:51:27.106Z,100651.15
2022-11-08T07:54:02.856Z,100649.95
2022-11-08T07:56:35.329Z,100647.44
2022-11-08T07:59:07.486Z,100644.10
2022-11-08T08:01:39.613Z,100644.86
2022-11-08T08:04:12.328Z,100645.64
2022-11-08T08:06:44.325Z,100645.02
2022-11-08T08:09:16.606Z,100643.01
2022-11-08T08:11:48.801Z,100642.13
2022-11-08T08:14:20.912Z,100636.98
2022-11-08T08:16:53.210Z,100635.68
2022-11-08T08:19:25.383Z,100625.15
2022-11-08T08:21:57.479Z,100645.14
2022-11-08T08:24:29.503Z,100650.84
2022-11-08T08:27:01.507Z,100649.80
2022-11-08T08:29:33.461Z,100658.71
2022-11-08T08:32:05.803Z,100641.35
2022-11-08T08:34:38.127Z,100655.05
2022-11-08T08:37:10.304Z,100656.45
2022-11-08T08:39:42.308Z,100651.95
2022-11-08T08:42:14.288Z,100654.61
2022-11-08T08:44:46.294Z,100649.70
2022-11-08T08:47:18.464Z,100652.38
2022-11-08T08:49:50.641Z,100652.86
2022-11-08T08:52:23.028Z,100653.33
2022-11-08T08:54:54.946Z,100653.69
2022-11-08T08:57:27.041Z,100655.09
2022-11-08T09:02:51.408Z,100653.42
2022-11-08T09:05:23.862Z,100661.40
2022-11-08T09:07:58.890Z,100657.23
2022-11-08T09:10:31.284Z,100651.17
2022-11-08T09:13:03.849Z,100652.36
2022-11-08T09:15:36.068Z,100653.02
2022-11-08T09:18:09.719Z,100647.70
2022-11-08T09:20:43.849Z,100662.89
2022-11-08T09:23:18.149Z,100663.81
2022-11-08T09:25:50.848Z,100659.91
2022-11-08T09:28:26.918Z,100658.05
2022-11-08T09:31:04.013Z,100661.20
2022-11-08T09:33:36.481Z,100661.15
2022-11-08T09:36:13.621Z,100655.02
2022-11-08T09:38:48.262Z,100650.38
2022-11-08T09:41:55.475Z,100650.50
2022-11-08T09:44:49.024Z,100650.52
2022-11-08T09:47:24.961Z,100652.16
2022-11-08T09:50:06.530Z,100644.73
2022-11-08T09:52:41.488Z,100638.77
2022-11-08T09:55:22.113Z,100638.47
2022-11-08T09:58:12.164Z,100634.16
2022-11-08T10:00:45.208Z,100631.16
2022-11-08T10:03:19.784Z,100631.33
2022-11-08T10:06:03.417Z,100628.66
2022-11-08T10:08:44.919Z,100612.73
2022-11-08T12:14:14.940Z,100555.66
2022-11-08T12:16:55.015Z,100550.63
2022-11-08T12:20:24.190Z,100545.34
2022-11-08T12:23:24.881Z,100529.05
2022-11-08T12:26:05.580Z,100541.89
2022-11-08T12:28:53.450Z,100536.34
2022-11-08T12:31:33.406Z,100533.00
2022-11-08T12:34:22.727Z,100525.86
2022-11-08T12:37:08.420Z,100527.55
2022-11-08T12:39:47.112Z,100527.30
2022-11-08T12:42:37.961Z,100527.23
2022-11-08T12:45:39.196Z,100511.69
2022-11-08T12:48:23.660Z,100521.45
2022-11-08T12:51:04.473Z,100518.56
2022-11-08T12:54:02.067Z,100517.04
2022-11-08T12:56:40.350Z,100512.73
2022-11-08T12:59:22.272Z,100508.33
2022-11-08T13:01:56.085Z,100510.56
2022-11-08T13:04:46.455Z,100510.15
2022-11-08T13:07:27.006Z,100511.04
2022-11-08T13:10:11.088Z,100506.08
2022-11-08T13:12:52.163Z,100507.36
2022-11-08T13:15:26.234Z,100503.84
2022-11-08T13:18:33.898Z,100503.84
2022-11-08T13:21:38.379Z,100502.05
2022-11-08T13:24:45.679Z,100503.11
2022-11-08T13:27:41.018Z,100501.83
2022-11-08T13:30:36.811Z,100505.58
2022-11-08T13:33:20.372Z,100506.45
2022-11-08T13:36:05.019Z,100506.85
2022-11-08T13:38:50.341Z,100511.26
2022-11-08T13:41:21.796Z,100508.86
2022-11-08T13:43:56.342Z,100510.30
2022-11-08T13:46:44.878Z,100511.34
2022-11-08T13:49:24.269Z,100508.36
2022-11-08T13:52:27.012Z,100509.09
2022-11-08T13:54:59.044Z,100494.97
2022-11-08T13:57:58.839Z,100511.94
2022-11-08T14:00:47.015Z,100510.19
2022-11-08T14:03:55.432Z,100508.52
2022-11-08T14:06:33.665Z,100506.52
2022-11-08T14:09:16.973Z,100510.04
2022-11-08T14:11:59.089Z,100508.92
2022-11-08T14:14:43.401Z,100508.37
2022-11-08T14:17:29.017Z,100507.09
2022-11-08T14:20:22.939Z,100499.80
2022-11-08T14:22:55.383Z,100498.05
2022-11-08T14:25:31.504Z,100496.20
2022-11-08T14:28:03.662Z,100494.67
2022-11-08T14:30:35.768Z,100495.00
2022-11-08T14:33:19.256Z,100491.64
2022-11-08T14:36:03.665Z,100493.48
2022-11-08T14:38:38.059Z,100486.52
2022-11-08T14:41:16.309Z,100479.14
2022-11-08T14:43:55.062Z,100488.02
2022-11-08T14:46:33.147Z,100492.50
2022-11-08T14:49:20.213Z,100495.29
2022-11-08T14:52:07.843Z,100500.31
2022-11-08T14:54:43.268Z,100491.98
2022-11-08T14:57:36.553Z,100499.00
2022-11-08T15:00:18.947Z,100496.09
2022-11-08T15:02:54.515Z,100481.16
2022-11-08T15:05:33.721Z,100494.98
2022-11-08T15:08:09.517Z,100493.04
2022-11-08T15:10:52.521Z,100489.96
2022-11-08T15:13:25.232Z,100488.19
2022-11-08T15:16:02.324Z,100485.27
2022-11-08T15:18:37.748Z,100471.67
2022-11-08T15:21:24.485Z,100487.65
2022-11-08T15:24:06.053Z,100485.45
2022-11-08T15:26:38.396Z,100483.17
2022-11-08T15:29:19.831Z,100482.27
2022-11-08T15:32:01.178Z,100484.80
2022-11-08T15:34:38.940Z,100481.65
2022-11-08T15:37:28.164Z,100478.60
2022-11-08T15:40:04.956Z,100474.98
2022-11-08T15:42:44.715Z,100477.20
2022-11-08T15:45:26.890Z,100473.81
2022-11-08T15:48:13.727Z,100466.54
2022-11-08T15:50:45.761Z,100468.63
2022-11-08T15:53:18.830Z,100463.83
2022-11-08T15:55:54.824Z,100465.86
2022-11-08T15:58:30.099Z,100464.39
2022-11-08T16:01:04.989Z,100466.30
2022-11-08T16:03:37.073Z,100464.34
2022-11-08T16:06:10.881Z,100450.98
2022-11-08T16:08:43.277Z,100460.50
2022-11-08T16:11:20.778Z,100449.36
2022-11-08T16:13:52.968Z,100448.64
2022-11-08T16:16:25.157Z,100450.08
2022-11-08T16:18:57.182Z,100449.98
2022-11-08T16:21:29.739Z,100446.73
2022-11-08T16:24:02.615Z,100446.48
2022-11-08T16:26:35.844Z,100447.17
2022-11-08T16:29:08.688Z,100443.96
2022-11-08T16:31:40.935Z,100443.02
2022-11-08T16:34:13.418Z,100446.23
2022-11-08T16:36:46.696Z,100445.34
2022-11-08T16:39:22.773Z,100442.25
2022-11-08T16:41:54.959Z,100445.22
2022-11-08T16:44:27.092Z,100450.54
2022-11-08T16:46:59.171Z,100448.63
2022-11-08T16:49:33.404Z,100444.30
2022-11-08T16:52:05.522Z,100449.74
2022-11-08T16:54:37.896Z,100447.17
2022-11-08T17:00:02.405Z,100452.16
2022-11-08T17:02:37.109Z,100451.21
2022-11-08T17:05:13.627Z,100450.40
2022-11-08T17:07:45.952Z,100448.82
2022-11-08T17:10:21.163Z,100452.02
2022-11-08T17:12:54.372Z,100456.73
2022-11-08T17:15:29.073Z,100458.38
2022-11-08T17:18:00.202Z,100454.74
2022-11-08T17:20:32.391Z,100455.52
2022-11-08T17:23:04.660Z,100454.08
2022-11-08T17:25:39.919Z,100446.67
2022-11-08T17:28:13.771Z,100444.60
2022-11-08T17:30:45.906Z,100430.23
2022-11-08T17:33:18.388Z,100423.99
2022-11-08T17:35:50.840Z,100434.23
2022-11-08T17:38:23.038Z,100430.34
2022-11-08T17:41:02.537Z,100437.44
2022-11-08T17:43:34.999Z,100430.41
2022-11-08T17:46:07.280Z,100411.91
2022-11-08T17:48:40.049Z,100427.83
2022-11-08T17:51:15.446Z,100425.02
2022-11-08T17:53:48.579Z,100430.32
2022-11-08T17:56:22.381Z,100418.45
2022-11-08T17:58:55.186Z,100430.39
2022-11-08T18:01:27.481Z,100422.58
2022-11-08T18:04:00.371Z,100426.64
2022-11-08T18:06:33.340Z,100426.02
2022-11-08T18:09:06.521Z,100414.02
2022-11-08T18:11:40.239Z,100429.81
2022-11-08T18:14:13.876Z,100428.69
2022-11-08T18:16:49.089Z,100430.47
2022-11-08T18:19:22.438Z,100417.02
2022-11-08T18:21:55.063Z,100431.92
2022-11-08T18:24:28.490Z,100431.46
2022-11-08T18:27:02.050Z,100430.96
2022-11-08T18:29:34.923Z,100429.06
2022-11-08T18:32:08.321Z,100427.36
2022-11-08T18:34:40.776Z,100428.64
2022-11-08T18:37:13.153Z,100429.04
2022-11-08T18:39:45.652Z,100427.71
2022-11-08T18:42:18.334Z,100425.58
2022-11-08T18:44:51.074Z,100423.39
2022-11-08T18:47:24.143Z,100412.08
2022-11-08T18:50:01.379Z,100422.03
2022-11-08T18:52:34.874Z,100422.07
2022-11-08T18:55:09.745Z,100419.30
2022-11-08T18:57:46.199Z,100421.60
2022-11-08T19:00:21.551Z,100415.11
2022-11-08T19:02:55.717Z,100415.54
2022-11-08T19:05:29.906Z,100411.11
2022-11-08T19:08:04.296Z,100411.12
2022-11-08T19:10:39.228Z,100414.20
2022-11-08T19:13:14.345Z,100417.55
2022-11-08T19:15:57.263Z,100417.53
2022-11-08T19:18:32.755Z,100418.31
2022-11-08T19:21:09.581Z,100413.67
2022-11-08T19:23:44.206Z,100416.83
2022-11-08T19:26:20.037Z,100416.95
2022-11-08T19:28:58.166Z,100420.32
2022-11-08T19:31:35.299Z,100421.12
2022-11-08T19:34:09.655Z,100419.98
2022-11-08T19:36:44.926Z,100423.11
2022-11-08T19:39:20.597Z,100428.41
2022-11-08T19:41:55.359Z,100428.90
2022-11-08T19:44:29.754Z,100427.67
2022-11-08T19:47:05.050Z,100429.30
2022-11-08T19:49:40.395Z,100433.96
2022-11-08T19:52:15.354Z,100429.21
2022-11-08T19:54:50.368Z,100439.17
2022-11-08T19:57:29.604Z,100435.55
2022-11-08T20:00:06.206Z,100433.14
2022-11-08T20:02:47.135Z,100433.42
2022-11-08T20:05:19.247Z,100433.40
2022-11-08T20:07:53.271Z,100433.87
2022-11-08T20:10:28.193Z,100428.80
2022-11-08T20:13:00.466Z,100413.90
2022-11-08T20:15:34.359Z,100425.64
2022-11-08T20:18:09.796Z,100428.27
2022-11-08T20:20:44.340Z,100424.33
2022-11-08T20:23:18.895Z,100422.73
2022-11-08T20:25:51.299Z,100423.23
2022-11-08T20:28:24.142Z,100417.71
2022-11-08T20:31:03.978Z,100414.47
2022-11-08T20:33:38.058Z,100420.92
2022-11-08T20:36:13.247Z,100416.14
2022-11-08T20:38:46.087Z,100414.34
2022-11-08T20:41:19.524Z,100419.77
2022-11-08T20:43:51.777Z,100415.54
2022-11-08T20:46:25.586Z,100412.81
2022-11-08T20:49:01.736Z,100412.58
2022-11-08T20:51:35.116Z,100412.77
2022-11-08T20:54:07.357Z,100409.48
2022-11-08T20:56:39.440Z,100410.41
2022-11-08T20:59:12.401Z,100414.70
2022-11-08T21:01:44.810Z,100413.82
2022-11-08T21:04:17.194Z,100409.99
2022-11-08T21:07:00.626Z,100411.44
2022-11-08T21:09:49.931Z,100406.02
2022-11-08T21:12:23.378Z,100411.83
2022-11-08T21:14:55.724Z,100408.09
2022-11-08T21:17:28.073Z,100408.67
2022-11-08T21:20:00.802Z,100405.73
2022-11-08T21:22:33.951Z,100407.23
2022-11-08T21:25:06.902Z,100378.86
2022-11-08T21:27:39.147Z,100385.48
2022-11-08T21:30:13.366Z,100401.73
2022-11-08T21:32:46.129Z,100401.11
2022-11-08T21:35:18.812Z,100402.34
2022-11-08T21:37:51.276Z,100402.27
2022-11-08T21:40:23.599Z,100396.44
2022-11-08T21:42:55.845Z,100387.10
2022-11-08T21:45:29.055Z,100382.70
2022-11-08T21:48:01.438Z,100387.44
2022-11-08T21:50:34.507Z,100391.77
2022-11-08T21:53:08.107Z,100388.73
2022-11-08T21:55:40.565Z,100390.40
2022-11-08T21:58:12.955Z,100391.39
2022-11-08T22:00:50.971Z,100392.44
2022-11-08T22:03:23.629Z,100393.18
2022-11-08T22:05:56.074Z,100390.65
2022-11-08T22:08:28.550Z,100385.82
2022-11-08T22:11:00.843Z,100386.28
2022-11-08T22:13:33.118Z,100385.27
2022-11-08T22:16:05.951Z,100384.76
2022-11-08T22:21:41.221Z,100382.29
2022-11-08T22:24:17.316Z,100381.48
2022-11-08T22:26:50.810Z,100382.55
2022-11-08T22:29:23.282Z,100378.59
2022-11-08T22:31:56.101Z,100384.36
2022-11-08T22:34:28.700Z,100381.22
2022-11-08T22:37:01.155Z,100382.47
2022-11-08T22:39:33.353Z,100378.97
2022-11-08T22:42:06.326Z,100377.98
2022-11-08T22:44:38.898Z,100376.09
2022-11-08T22:47:11.163Z,100377.27
2022-11-08T22:49:45.128Z,100376.60
2022-11-08T22:52:17.610Z,100377.24
2022-11-08T22:54:50.018Z,100380.05
2022-11-08T22:57:22.275Z,100375.92
2022-11-08T22:59:54.575Z,100377.86
2022-11-08T23:02:32.697Z,100379.41
2022-11-08T23:05:06.422Z,100379.95
2022-11-08T23:07:40.911Z,100382.49
2022-11-08T23:10:13.501Z,100377.48
2022-11-08T23:13:03.484Z,100376.36
2022-11-08T23:15:50.214Z,100370.39
2022-11-08T23:18:23.042Z,100376.94
2022-11-08T23:21:15.649Z,100379.83
2022-11-08T23:24:05.732Z,100382.20
2022-11-08T23:27:00.806Z,100383.85
2022-11-08T23:29:50.455Z,100379.89
2022-11-08T23:32:22.789Z,100370.69
2022-11-08T23:34:55.092Z,100370.36
2022-11-08T23:37:27.818Z,100368.83
2022-11-08T23:40:17.825Z,100369.73
2022-11-08T23:43:07.354Z,100367.29
2022-11-08T23:45:39.664Z,100366.13
2022-11-08T23:48:11.612Z,100365.39
2022-11-08T23:50:49.895Z,100367.40
2022-11-08T23:53:25.143Z,100368.09
2022-11-08T23:55:57.659Z,100359.70
2022-11-08T23:58:29.641Z,100359.98
